createdAt,value
2018-07-01T00:02:19.913Z,14.70
2018-07-01T00:04:49.808Z,14.70
2018-07-01T00:07:19.527Z,14.70
2018-07-01T00:09:49.354Z,14.70
2018-07-01T00:12:19.243Z,14.60
2018-07-01T00:14:48.989Z,14.60
2018-07-01T00:17:18.777Z,14.50
2018-07-01T00:19:48.558Z,14.50
2018-07-01T00:22:18.209Z,14.50
2018-07-01T00:24:48.013Z,14.50
2018-07-01T00:27:17.867Z,14.50
2018-07-01T00:29:47.628Z,14.50
2018-07-01T00:32:17.363Z,14.50
2018-07-01T00:34:47.049Z,14.50
2018-07-01T00:37:16.838Z,14.50
2018-07-01T00:39:46.697Z,14.40
2018-07-01T00:42:16.500Z,14.40
2018-07-01T00:44:46.356Z,14.30
2018-07-01T00:47:16.075Z,14.30
2018-07-01T00:49:45.741Z,14.30
2018-07-01T00:52:15.605Z,14.30
2018-07-01T00:54:45.370Z,14.30
2018-07-01T00:57:15.164Z,14.40
2018-07-01T00:59:44.784Z,14.40
2018-07-01T01:02:14.603Z,14.40
2018-07-01T01:04:44.483Z,14.40
2018-07-01T01:07:14.210Z,14.30
2018-07-01T01:09:44.089Z,14.30
2018-07-01T01:12:13.944Z,14.30
2018-07-01T01:14:43.704Z,14.30
2018-07-01T01:17:13.573Z,14.30
2018-07-01T01:19:43.337Z,14.30
2018-07-01T01:22:12.988Z,14.20
2018-07-01T01:24:42.736Z,14.20
2018-07-01T01:29:41.705Z,14.10
2018-07-01T01:32:11.633Z,14.10
2018-07-01T01:34:41.396Z,14.00
2018-07-01T01:37:11.147Z,14.00
2018-07-01T01:39:41.865Z,14.10
2018-07-01T01:42:20.333Z,14.00
2018-07-01T01:47:27.708Z,14.00
2018-07-01T01:50:02.946Z,14.00
2018-07-01T01:52:37.575Z,14.00
2018-07-01T01:56:15.099Z,13.90
2018-07-01T01:58:56.663Z,13.90
2018-07-01T02:01:31.827Z,13.90
2018-07-01T02:06:50.228Z,13.90
2018-07-01T02:09:25.928Z,13.80
2018-07-01T02:11:56.948Z,13.90
2018-07-01T02:14:48.197Z,13.90
2018-07-01T02:19:51.532Z,13.70
2018-07-01T02:22:26.823Z,13.70
2018-07-01T02:24:57.530Z,13.70
2018-07-01T02:27:27.345Z,13.70
2018-07-01T02:29:57.076Z,13.70
2018-07-01T02:32:26.756Z,13.60
2018-07-01T02:34:56.693Z,13.60
2018-07-01T02:37:26.411Z,13.60
2018-07-01T02:39:56.071Z,13.60
2018-07-01T02:42:25.825Z,13.50
2018-07-01T02:44:55.692Z,13.40
2018-07-01T02:47:25.445Z,13.40
2018-07-01T02:49:55.316Z,13.40
2018-07-01T02:52:25.053Z,13.40
2018-07-01T02:54:54.773Z,13.40
2018-07-01T02:57:24.607Z,13.40
2018-07-01T02:59:54.385Z,13.40
2018-07-01T03:02:24.135Z,13.40
2018-07-01T03:04:53.946Z,13.40
2018-07-01T03:07:23.905Z,13.40
2018-07-01T03:09:53.556Z,13.40
2018-07-01T03:12:23.239Z,13.40
2018-07-01T03:14:52.985Z,13.30
2018-07-01T03:17:22.665Z,13.30
2018-07-01T03:19:52.344Z,13.30
2018-07-01T03:22:22.103Z,13.30
2018-07-01T03:24:52.076Z,13.30
2018-07-01T03:29:50.819Z,13.20
2018-07-01T03:32:20.592Z,13.30
2018-07-01T03:34:50.233Z,13.20
2018-07-01T03:37:20.208Z,13.20
2018-07-01T03:39:49.769Z,13.20
2018-07-01T03:42:19.460Z,13.30
2018-07-01T03:44:49.137Z,13.30
2018-07-01T03:47:18.900Z,13.30
2018-07-01T03:49:48.752Z,13.30
2018-07-01T03:54:47.516Z,13.30
2018-07-01T03:57:17.279Z,13.30
2018-07-01T03:59:47.136Z,13.40
2018-07-01T04:02:16.964Z,13.40
2018-07-01T04:04:46.657Z,13.50
2018-07-01T04:07:16.349Z,13.50
2018-07-01T04:09:46.085Z,13.50
2018-07-01T04:12:15.691Z,13.60
2018-07-01T04:14:45.453Z,13.60
2018-07-01T04:17:15.125Z,13.60
2018-07-01T04:19:44.922Z,13.70
2018-07-01T04:22:14.617Z,13.80
2018-07-01T04:24:44.312Z,13.80
2018-07-01T04:27:14.003Z,13.90
2018-07-01T04:29:43.552Z,14.00
2018-07-01T04:32:13.413Z,14.00
2018-07-01T04:34:43.180Z,14.10
2018-07-01T04:37:12.883Z,14.20
2018-07-01T04:39:42.649Z,14.20
2018-07-01T04:42:12.399Z,14.20
2018-07-01T04:44:42.277Z,14.20
2018-07-01T04:47:11.931Z,14.30
2018-07-01T04:49:41.697Z,14.30
2018-07-01T04:52:11.461Z,14.40
2018-07-01T04:54:41.322Z,14.40
2018-07-01T04:57:11.360Z,14.50
2018-07-01T04:59:41.150Z,14.50
2018-07-01T05:02:11.001Z,14.60
2018-07-01T05:04:40.668Z,14.60
2018-07-01T05:07:10.638Z,14.70
2018-07-01T05:09:40.408Z,14.80
2018-07-01T05:12:10.160Z,14.80
2018-07-01T05:14:40.023Z,14.80
2018-07-01T05:17:09.846Z,15.00
2018-07-01T05:19:39.587Z,15.00
2018-07-01T05:22:09.393Z,15.10
2018-07-01T05:24:39.176Z,15.20
2018-07-01T05:27:09.034Z,15.30
2018-07-01T05:29:38.789Z,15.30
2018-07-01T05:32:08.644Z,15.40
2018-07-01T05:34:38.341Z,15.50
2018-07-01T05:37:08.065Z,15.60
2018-07-01T05:39:37.818Z,15.70
2018-07-01T05:42:07.647Z,15.70
2018-07-01T05:44:37.217Z,15.80
2018-07-01T05:47:07.168Z,15.90
2018-07-01T05:49:36.837Z,15.90
2018-07-01T05:52:06.773Z,16.00
2018-07-01T05:54:36.444Z,16.00
2018-07-01T05:57:06.206Z,16.00
2018-07-01T05:59:35.966Z,16.00
2018-07-01T06:02:05.809Z,16.10
2018-07-01T06:04:35.645Z,16.20
2018-07-01T06:09:34.744Z,16.40
2018-07-01T06:12:04.624Z,16.50
2018-07-01T06:14:34.345Z,16.60
2018-07-01T06:17:04.305Z,16.70
2018-07-01T06:19:34.069Z,16.70
2018-07-01T06:22:03.816Z,16.70
2018-07-01T06:24:33.507Z,16.70
2018-07-01T06:27:03.344Z,16.80
2018-07-01T06:32:02.308Z,16.80
2018-07-01T06:34:32.169Z,16.80
2018-07-01T06:37:01.801Z,16.80
2018-07-01T06:39:31.650Z,16.90
2018-07-01T06:42:01.361Z,17.00
2018-07-01T06:44:31.133Z,17.10
2018-07-01T06:47:00.824Z,17.30
2018-07-01T06:49:30.507Z,17.50
2018-07-01T06:52:00.288Z,18.40
2018-07-01T06:54:30.094Z,20.30
2018-07-01T06:56:59.809Z,22.20
2018-07-01T06:59:29.512Z,24.10
2018-07-01T07:01:59.305Z,25.30
2018-07-01T07:04:29.043Z,26.40
2018-07-01T07:06:58.842Z,27.30
2018-07-01T07:09:28.205Z,28.20
2018-07-01T07:11:57.577Z,28.80
2018-07-01T07:14:26.939Z,29.50
2018-07-01T07:16:56.362Z,30.10
2018-07-01T07:19:25.781Z,30.50
2018-07-01T07:21:55.188Z,31.00
2018-07-01T07:24:24.596Z,31.30
2018-07-01T07:26:53.990Z,31.90
2018-07-01T07:29:23.357Z,32.50
2018-07-01T07:31:52.759Z,33.40
2018-07-01T07:34:22.153Z,33.60
2018-07-01T07:36:51.546Z,33.90
2018-07-01T07:39:20.965Z,34.20
2018-07-01T07:41:50.360Z,34.40
2018-07-01T07:44:19.752Z,34.60
2018-07-01T07:46:49.172Z,34.80
2018-07-01T07:49:18.544Z,34.80
2018-07-01T07:51:47.933Z,35.00
2018-07-01T07:54:17.297Z,35.20
2018-07-01T07:56:46.685Z,35.30
2018-07-01T07:59:16.058Z,35.60
2018-07-01T08:01:45.495Z,35.60
2018-07-01T08:04:14.901Z,35.80
2018-07-01T08:06:44.328Z,35.80
2018-07-01T08:09:13.718Z,35.90
2018-07-01T08:11:43.121Z,35.90
2018-07-01T08:14:12.567Z,36.10
2018-07-01T08:16:42.171Z,35.80
2018-07-01T08:19:11.580Z,35.60
2018-07-01T08:21:40.987Z,35.50
2018-07-01T08:26:41.130Z,32.60
2018-07-01T08:29:12.190Z,30.50
2018-07-01T08:31:44.866Z,29.30
2018-07-01T08:36:44.858Z,30.10
2018-07-01T08:39:14.583Z,30.30
2018-07-01T08:42:48.802Z,29.50
2018-07-01T08:45:19.582Z,28.70
2018-07-01T08:47:50.665Z,27.70
2018-07-01T08:50:20.963Z,27.30
2018-07-01T08:52:51.755Z,26.60
2018-07-01T08:55:22.990Z,25.80
2018-07-01T08:57:53.650Z,25.10
2018-07-01T09:02:53.558Z,26.20
2018-07-01T09:05:24.889Z,27.50
2018-07-01T09:07:55.836Z,27.50
2018-07-01T09:10:26.475Z,26.90
2018-07-01T09:12:56.837Z,26.20
2018-07-01T09:15:27.612Z,26.30
2018-07-01T09:17:57.199Z,27.80
2018-07-01T09:20:26.856Z,29.40
2018-07-01T09:22:57.578Z,30.90
2018-07-01T09:25:28.335Z,32.30
2018-07-01T09:27:59.491Z,33.00
2018-07-01T09:30:30.455Z,33.60
2018-07-01T09:33:00.663Z,34.00
2018-07-01T09:35:31.252Z,34.20
2018-07-01T09:38:01.977Z,33.40
2018-07-01T09:40:32.705Z,33.10
2018-07-01T09:43:03.721Z,33.90
2018-07-01T09:45:34.847Z,34.30
2018-07-01T09:48:05.637Z,34.70
2018-07-01T09:50:36.617Z,34.80
2018-07-01T09:53:08.719Z,34.70
2018-07-01T09:55:39.061Z,33.20
2018-07-01T09:58:10.591Z,32.50
2018-07-01T10:00:42.452Z,32.50
2018-07-01T10:03:12.458Z,32.80
2018-07-01T10:05:42.239Z,33.10
2018-07-01T10:08:12.037Z,32.80
2018-07-01T10:10:41.458Z,31.90
2018-07-01T10:13:10.854Z,30.80
2018-07-01T10:15:40.635Z,30.70
2018-07-01T10:18:10.087Z,30.80
2018-07-01T10:20:39.469Z,30.70
2018-07-01T10:23:08.881Z,29.90
2018-07-01T10:25:38.604Z,28.80
2018-07-01T10:28:08.494Z,27.80
2018-07-01T10:30:37.924Z,26.90
2018-07-01T10:33:07.515Z,26.20
2018-07-01T10:35:36.938Z,26.00
2018-07-01T10:38:06.697Z,26.00
2018-07-01T10:40:36.354Z,26.00
2018-07-01T10:43:05.729Z,25.70
2018-07-01T10:45:35.122Z,25.60
2018-07-01T10:48:04.664Z,25.60
2018-07-01T10:50:34.050Z,25.20
2018-07-01T10:53:03.444Z,24.90
2018-07-01T10:55:32.828Z,24.70
2018-07-01T10:58:02.236Z,24.30
2018-07-01T11:00:31.621Z,24.20
2018-07-01T11:03:01.042Z,24.10
2018-07-01T11:05:30.440Z,24.00
2018-07-01T11:07:59.939Z,23.80
2018-07-01T11:10:29.340Z,23.70
2018-07-01T11:12:58.754Z,23.50
2018-07-01T11:15:28.196Z,23.30
2018-07-01T11:17:57.588Z,23.10
2018-07-01T11:20:27.053Z,23.00
2018-07-01T11:22:56.386Z,22.90
2018-07-01T11:25:25.760Z,22.90
2018-07-01T11:27:55.160Z,23.10
2018-07-01T11:30:24.589Z,23.20
2018-07-01T11:32:53.966Z,23.10
2018-07-01T11:35:23.355Z,23.10
2018-07-01T11:37:52.738Z,23.20
2018-07-01T11:40:22.252Z,23.20
2018-07-01T11:42:51.868Z,23.10
2018-07-01T11:45:21.309Z,22.90
2018-07-01T11:47:50.698Z,22.70
2018-07-01T11:50:20.067Z,22.70
2018-07-01T11:52:49.434Z,22.90
2018-07-01T11:55:18.948Z,23.00
2018-07-01T11:57:48.326Z,23.20
2018-07-01T12:00:17.713Z,23.40
2018-07-01T12:02:47.118Z,23.60
2018-07-01T12:05:17.403Z,23.60
2018-07-01T12:07:46.831Z,23.50
2018-07-01T12:10:16.197Z,23.50
2018-07-01T12:12:45.597Z,23.50
2018-07-01T12:15:14.976Z,23.50
2018-07-01T12:17:44.368Z,23.30
2018-07-01T12:20:13.821Z,23.10
2018-07-01T12:22:43.249Z,22.90
2018-07-01T12:25:12.644Z,22.80
2018-07-01T12:27:42.061Z,22.80
2018-07-01T12:30:11.966Z,22.80
2018-07-01T12:32:41.553Z,22.80
2018-07-01T12:35:11.666Z,22.70
2018-07-01T12:37:41.552Z,22.60
2018-07-01T12:40:11.432Z,22.60
2018-07-01T12:42:40.881Z,22.60
2018-07-01T12:45:10.735Z,22.50
2018-07-01T12:47:40.537Z,22.40
2018-07-01T12:50:10.313Z,22.30
2018-07-01T12:55:21.388Z,22.00
2018-07-01T12:57:51.214Z,21.90
2018-07-01T13:00:20.788Z,21.90
2018-07-01T13:02:50.471Z,22.00
2018-07-01T13:05:20.133Z,22.00
2018-07-01T13:07:49.545Z,22.10
2018-07-01T13:10:18.929Z,22.20
2018-07-01T13:12:48.336Z,22.30
2018-07-01T13:15:17.715Z,22.40
2018-07-01T13:17:47.129Z,22.60
2018-07-01T13:20:16.539Z,22.70
2018-07-01T13:22:46.027Z,22.80
2018-07-01T13:25:15.427Z,22.60
2018-07-01T13:27:44.819Z,22.40
2018-07-01T13:30:14.224Z,22.30
2018-07-01T13:32:43.969Z,22.30
2018-07-01T13:35:13.649Z,22.30
2018-07-01T13:37:43.542Z,22.30
2018-07-01T13:40:13.311Z,22.20
2018-07-01T13:42:43.225Z,22.20
2018-07-01T13:45:12.816Z,22.20
2018-07-01T13:47:42.399Z,22.20
2018-07-01T13:50:12.201Z,22.10
2018-07-01T13:52:41.924Z,22.30
2018-07-01T13:55:11.721Z,22.40
2018-07-01T14:00:10.806Z,22.60
2018-07-01T14:02:40.649Z,22.70
2018-07-01T14:10:08.488Z,22.40
2018-07-01T14:12:38.148Z,22.40
2018-07-01T14:17:36.900Z,22.40
2018-07-01T14:20:08.332Z,22.40
2018-07-01T14:22:38.315Z,22.50
2018-07-01T14:25:08.749Z,22.60
2018-07-01T14:27:38.293Z,22.70
2018-07-01T14:30:08.240Z,22.80
2018-07-01T14:32:38.104Z,23.00
2018-07-01T14:35:08.030Z,22.90
2018-07-01T14:37:37.543Z,22.70
2018-07-01T14:40:07.424Z,22.50
2018-07-01T14:42:37.128Z,22.30
2018-07-01T14:47:36.027Z,22.10
2018-07-01T14:50:06.210Z,22.20
2018-07-01T14:52:35.987Z,22.30
2018-07-01T14:55:05.788Z,22.20
2018-07-01T14:57:35.334Z,22.10
2018-07-01T15:00:05.593Z,21.90
2018-07-01T15:02:35.076Z,21.80
2018-07-01T15:05:05.316Z,21.60
2018-07-01T15:07:34.882Z,21.50
2018-07-01T15:10:04.857Z,21.40
2018-07-01T15:12:34.688Z,21.40
2018-07-01T15:15:04.382Z,21.40
2018-07-01T15:20:03.025Z,21.20
2018-07-01T15:22:32.823Z,21.20
2018-07-01T15:25:02.440Z,21.10
2018-07-01T15:27:32.138Z,21.10
2018-07-01T15:30:01.923Z,21.10
2018-07-01T15:35:00.679Z,21.00
2018-07-01T15:37:30.539Z,21.10
2018-07-01T15:44:58.236Z,21.00
2018-07-01T15:47:27.882Z,21.00
2018-07-01T15:49:57.601Z,21.00
2018-07-01T15:52:27.196Z,21.00
2018-07-01T15:54:56.776Z,21.00
2018-07-01T15:57:26.380Z,20.90
2018-07-01T15:59:56.027Z,20.90
2018-07-01T16:02:25.870Z,20.80
2018-07-01T16:04:55.532Z,20.80
2018-07-01T16:07:25.257Z,20.70
2018-07-01T16:09:55.056Z,20.70
2018-07-01T16:12:24.732Z,20.60
2018-07-01T16:17:23.564Z,20.50
2018-07-01T16:19:53.500Z,20.40
2018-07-01T16:22:22.876Z,20.40
2018-07-01T16:24:57.248Z,20.30
2018-07-01T16:27:32.951Z,20.30
2018-07-01T16:30:07.184Z,20.30
2018-07-01T16:32:37.359Z,20.30
2018-07-01T16:35:06.965Z,20.30
2018-07-01T16:37:37.668Z,20.30
2018-07-01T16:40:08.362Z,20.30
2018-07-01T16:42:38.329Z,20.20
2018-07-01T16:45:09.081Z,20.20
2018-07-01T16:47:39.712Z,20.20
2018-07-01T16:50:10.169Z,20.20
2018-07-01T16:52:40.518Z,20.10
2018-07-01T16:55:09.892Z,20.10
2018-07-01T16:57:39.256Z,20.10
2018-07-01T17:00:10.021Z,20.00
2018-07-01T17:02:40.020Z,20.00
2018-07-01T17:05:09.465Z,20.00
2018-07-01T17:07:40.120Z,19.90
2018-07-01T17:10:10.245Z,19.90
2018-07-01T17:12:39.976Z,20.00
2018-07-01T17:15:09.381Z,20.00
2018-07-01T17:17:39.094Z,20.00
2018-07-01T17:20:11.218Z,20.00
2018-07-01T17:22:41.230Z,20.10
2018-07-01T17:25:11.447Z,20.10
2018-07-01T17:27:42.024Z,20.10
2018-07-01T17:30:15.233Z,20.10
2018-07-01T17:32:51.666Z,20.10
2018-07-01T17:35:21.522Z,20.20
2018-07-01T17:37:51.545Z,20.20
2018-07-01T17:40:21.129Z,20.10
2018-07-01T17:42:51.536Z,20.10
2018-07-01T17:45:21.454Z,20.10
2018-07-01T17:47:51.614Z,20.10
2018-07-01T17:50:21.655Z,20.10
2018-07-01T17:52:51.633Z,20.00
2018-07-01T17:55:21.298Z,20.00
2018-07-01T17:57:51.187Z,19.90
2018-07-01T18:00:21.106Z,19.80
2018-07-01T18:02:51.151Z,19.70
2018-07-01T18:05:20.886Z,19.60
2018-07-01T18:07:50.669Z,19.50
2018-07-01T18:10:20.362Z,19.40
2018-07-01T18:12:50.537Z,19.30
2018-07-01T18:15:20.005Z,19.30
2018-07-01T18:17:49.420Z,19.30
2018-07-01T18:20:18.860Z,19.20
2018-07-01T18:23:18.235Z,19.10
2018-07-01T18:25:19.966Z,19.00
2018-07-01T18:27:59.947Z,18.90
2018-07-01T18:30:19.380Z,18.80
2018-07-01T18:32:49.296Z,18.70
2018-07-01T18:35:18.680Z,18.60
2018-07-01T18:37:48.056Z,18.50
2018-07-01T18:40:17.460Z,18.50
2018-07-01T18:42:46.856Z,18.40
2018-07-01T18:47:45.920Z,18.30
2018-07-01T18:50:15.825Z,18.20
2018-07-01T18:52:45.520Z,18.20
2018-07-01T18:55:14.876Z,18.10
2018-07-01T18:57:44.699Z,18.10
2018-07-01T19:00:14.691Z,18.00
2018-07-01T19:02:44.630Z,17.90
2018-07-01T19:07:43.070Z,17.70
2018-07-01T19:10:13.714Z,17.70
2018-07-01T19:12:43.861Z,17.60
2018-07-01T19:15:13.224Z,17.50
2018-07-01T19:17:43.624Z,17.50
2018-07-01T19:20:13.816Z,17.40
2018-07-01T19:25:14.614Z,17.40
2018-07-01T19:27:45.330Z,17.30
2018-07-01T19:30:14.908Z,17.20
2018-07-01T19:32:45.964Z,17.20
2018-07-01T19:35:18.211Z,17.10
2018-07-01T19:37:50.495Z,17.10
2018-07-01T19:40:21.495Z,17.00
2018-07-01T19:42:51.900Z,16.90
2018-07-01T19:45:22.841Z,16.90
2018-07-01T19:47:52.815Z,16.80
2018-07-01T19:50:22.196Z,16.70
2018-07-01T19:52:51.888Z,16.60
2018-07-01T19:55:21.593Z,16.50
2018-07-01T19:57:51.182Z,16.40
2018-07-01T20:00:21.734Z,16.30
2018-07-01T20:02:51.816Z,16.20
2018-07-01T20:05:21.936Z,16.10
2018-07-01T20:07:52.835Z,16.10
2018-07-01T20:10:23.357Z,16.10
2018-07-01T20:12:53.875Z,16.00
2018-07-01T20:15:25.629Z,16.00
2018-07-01T20:17:56.217Z,16.00
2018-07-01T20:20:26.303Z,16.00
2018-07-01T20:22:57.010Z,16.00
2018-07-01T20:25:27.343Z,15.90
2018-07-01T20:27:57.642Z,15.90
2018-07-01T20:30:27.509Z,15.90
2018-07-01T20:32:56.875Z,15.90
2018-07-01T20:35:26.232Z,15.90
2018-07-01T20:37:55.708Z,15.80
2018-07-01T20:40:25.211Z,15.80
2018-07-01T20:42:54.585Z,15.80
2018-07-01T20:45:24.459Z,15.80
2018-07-01T20:47:53.816Z,15.80
2018-07-01T20:50:23.183Z,15.70
2018-07-01T20:52:52.540Z,15.70
2018-07-01T20:55:21.892Z,15.70
2018-07-01T20:57:51.274Z,15.70
2018-07-01T21:00:20.626Z,15.60
2018-07-01T21:02:49.992Z,15.60
2018-07-01T21:05:19.400Z,15.60
2018-07-01T21:07:48.757Z,15.50
2018-07-01T21:10:18.169Z,15.50
2018-07-01T21:12:47.529Z,15.50
2018-07-01T21:15:17.328Z,15.40
2018-07-01T21:17:47.304Z,15.40
2018-07-01T21:22:46.371Z,15.50
2018-07-01T21:25:15.763Z,15.50
2018-07-01T21:27:45.941Z,15.50
2018-07-01T21:30:15.584Z,15.50
2018-07-01T21:32:45.125Z,15.50
2018-07-01T21:35:14.522Z,15.50
2018-07-01T21:37:43.939Z,15.50
2018-07-01T21:40:13.380Z,15.50
2018-07-01T21:42:42.911Z,15.50
2018-07-01T21:45:12.711Z,15.50
2018-07-01T21:47:42.463Z,15.40
2018-07-01T21:50:12.540Z,15.50
2018-07-01T21:52:41.892Z,15.40
2018-07-01T21:55:11.298Z,15.40
2018-07-01T21:57:40.693Z,15.40
2018-07-01T22:00:11.045Z,15.40
2018-07-01T22:02:40.500Z,15.40
2018-07-01T22:05:09.921Z,15.40
2018-07-01T22:07:39.334Z,15.30
2018-07-01T22:10:08.713Z,15.30
2018-07-01T22:12:51.727Z,15.20
2018-07-01T22:15:31.822Z,15.20
2018-07-01T22:18:01.254Z,15.10
2018-07-01T22:20:31.141Z,15.00
2018-07-01T22:23:03.471Z,14.90
2018-07-01T22:25:33.216Z,14.80
2018-07-01T22:28:02.967Z,14.80
2018-07-01T22:30:32.770Z,14.70
2018-07-01T22:33:02.696Z,14.70
2018-07-01T22:35:32.416Z,14.70
2018-07-01T22:38:02.173Z,14.60
2018-07-01T22:40:31.931Z,14.60
2018-07-01T22:45:30.789Z,14.50
2018-07-01T22:48:00.346Z,14.50
2018-07-01T22:52:59.161Z,14.50
2018-07-01T22:55:28.905Z,14.40
2018-07-01T22:57:58.679Z,14.30
2018-07-01T23:03:13.691Z,14.20
2018-07-01T23:05:43.436Z,14.20
2018-07-01T23:08:13.281Z,14.20
2018-07-01T23:10:43.273Z,14.10
2018-07-01T23:13:13.085Z,14.10
2018-07-01T23:15:42.970Z,14.00
2018-07-01T23:18:12.724Z,14.00
2018-07-01T23:20:42.615Z,14.00
2018-07-01T23:23:12.352Z,13.90
2018-07-01T23:25:42.220Z,13.90
2018-07-01T23:28:11.976Z,13.80
2018-07-01T23:30:41.840Z,13.90
2018-07-01T23:33:11.506Z,13.90
2018-07-01T23:38:10.484Z,13.80
2018-07-01T23:40:40.221Z,13.80
2018-07-01T23:43:10.007Z,13.80
2018-07-01T23:45:39.929Z,13.80
2018-07-01T23:48:09.732Z,13.70
2018-07-01T23:50:39.424Z,13.70
2018-07-01T23:53:09.292Z,13.70
2018-07-01T23:55:39.045Z,13.60
2018-07-01T23:58:09.047Z,13.60
